| time (UTC) | temp C | wind direction | speed KPH | gust KPH | rain 1hr cm | rain 24hr cm | rain mn cm | humidity % | barometer mb |
| 20260905223501 | 13 | 315 | 9.7 | 16.1 | 0.00 | 0.00 | 0.00 | 85 | 1014.9 |
| 20260905223004 | 13 | 292 | 9.7 | 19.3 | 0.00 | 0.00 | 0.00 | 85 | 1015.0 |
| 20260905222504 | 13 | 315 | 8.0 | 14.5 | 0.00 | 0.00 | 0.00 | 85 | 1015.0 |
| 20260905222001 | 13 | 292 | 12.9 | 29.0 | 0.00 | 0.00 | 0.00 | 85 | 1015.0 |
| 20260905221509 | 13 | 315 | 8.0 | 11.3 | 0.00 | 0.00 | 0.00 | 85 | 1015.0 |
| 20260905221001 | 13 | 315 | 11.3 | 20.9 | 0.00 | 0.00 | 0.00 | 85 | 1014.9 |
| 20260905220502 | 13 | 292 | 8.0 | 12.9 | 0.00 | 0.00 | 0.00 | 85 | 1015.0 |
| 20260905220003 | 13 | 315 | 8.0 | 11.3 | 0.00 | 0.00 | 0.00 | 84 | 1014.9 |
| 20260905215501 | 13 | 292 | 11.3 | 17.7 | 0.00 | 0.00 | 0.00 | 84 | 1014.9 |
| 20260905215001 | 13 | 315 | 11.3 | 16.1 | 0.00 | 0.00 | 0.00 | 84 | 1014.9 |
| 20260905214504 | 13 | 292 | 6.4 | 12.9 | 0.00 | 0.00 | 0.00 | 84 | 1014.9 |
| 20260905214003 | 14 | 315 | 12.9 | 22.5 | 0.00 | 0.00 | 0.00 | 84 | 1014.9 |
| 20260905213503 | 14 | 315 | 9.7 | 14.5 | 0.00 | 0.00 | 0.00 | 84 | 1014.8 |
| 20260905213008 | 14 | 315 | 9.7 | 16.1 | 0.00 | 0.00 | 0.00 | 84 | 1014.8 |
| 20260905212502 | 14 | 292 | 6.4 | 11.3 | 0.00 | 0.00 | 0.00 | 83 | 1014.7 |
| 20260905212001 | 14 | 315 | 4.8 | 11.3 | 0.00 | 0.00 | 0.00 | 83 | 1014.7 |
| 20260905211501 | 14 | 270 | 8.0 | 11.3 | 0.00 | 0.00 | 0.00 | 83 | 1014.7 |
| 20260905211002 | 15 | 270 | 9.7 | 16.1 | 0.00 | 0.00 | 0.00 | 82 | 1014.6 |
| 20260905210507 | 15 | 270 | 12.9 | 25.7 | 0.00 | 0.00 | 0.00 | 82 | 1014.6 |
| 20260905210005 | 15 | 292 | 3.2 | 11.3 | 0.00 | 0.00 | 0.00 | 81 | 1014.5 |
| 20260905205501 | 15 | 248 | 4.8 | 12.9 | 0.00 | 0.00 | 0.00 | 81 | 1014.4 |
| 20260905205003 | 15 | 292 | 6.4 | 12.9 | 0.00 | 0.00 | 0.00 | 81 | 1014.3 |
| 20260905204507 | 15 | 315 | 12.9 | 22.5 | 0.00 | 0.00 | 0.00 | 81 | 1014.3 |
| 20260905204006 | 15 | 315 | 8.0 | 11.3 | 0.00 | 0.00 | 0.00 | 81 | 1014.2 |
| 20260905203504 | 15 | 292 | 14.5 | 25.7 | 0.00 | 0.00 | 0.00 | 81 | 1014.2 |
| 20260905203006 | 15 | 315 | 8.0 | 14.5 | 0.00 | 0.00 | 0.00 | 81 | 1014.1 |
| 20260905202503 | 15 | 292 | 6.4 | 16.1 | 0.00 | 0.00 | 0.00 | 80 | 1014.1 |
| 20260905202007 | 15 | 292 | 8.0 | 14.5 | 0.00 | 0.00 | 0.00 | 80 | 1014.0 |
| 20260905201505 | 15 | 292 | 8.0 | 16.1 | 0.00 | 0.00 | 0.00 | 80 | 1014.0 |
| 20260905201000 | 15 | 270 | 4.8 | 9.7 | 0.00 | 0.00 | 0.00 | 80 | 1013.9 |
| 20260905200503 | 15 | 315 | 12.9 | 20.9 | 0.00 | 0.00 | 0.00 | 79 | 1014.0 |
| 20260905200007 | 15 | 270 | 12.9 | 22.5 | 0.00 | 0.00 | 0.00 | 79 | 1014.1 |
| 20260905195506 | 15 | 315 | 6.4 | 11.3 | 0.00 | 0.00 | 0.00 | 79 | 1014.0 |
| 20260905195002 | 15 | 270 | 6.4 | 16.1 | 0.00 | 0.00 | 0.00 | 78 | 1014.0 |
| 20260905194505 | 15 | 315 | 8.0 | 12.9 | 0.00 | 0.00 | 0.00 | 78 | 1014.0 |
| 20260905194003 | 15 | 315 | 9.7 | 20.9 | 0.00 | 0.00 | 0.00 | 78 | 1014.1 |
| 20260905193506 | 15 | 292 | 8.0 | 19.3 | 0.00 | 0.00 | 0.00 | 78 | 1014.0 |
| 20260905193006 | 15 | 292 | 8.0 | 12.9 | 0.00 | 0.00 | 0.00 | 78 | 1013.8 |
| 20260905192501 | 15 | 270 | 8.0 | 12.9 | 0.00 | 0.00 | 0.00 | 78 | 1013.8 |
| 20260905192004 | 15 | 315 | 6.4 | 17.7 | 0.00 | 0.00 | 0.00 | 78 | 1013.9 |
| 20260905191500 | 15 | 270 | 9.7 | 19.3 | 0.00 | 0.00 | 0.00 | 79 | 1014.0 |
| 20260905191004 | 15 | 248 | 3.2 | 8.0 | 0.00 | 0.00 | 0.00 | 81 | 1014.0 |
| 20260905190504 | 15 | 225 | 4.8 | 12.9 | 0.00 | 0.00 | 0.00 | 81 | 1014.0 |
| 20260905190002 | 15 | 225 | 1.6 | 6.4 | 0.00 | 0.00 | 0.00 | 81 | 1014.0 |
| 20260905185503 | 15 | 225 | 6.4 | 14.5 | 0.00 | 0.00 | 0.00 | 82 | 1014.0 |
| 20260905185005 | 15 | 248 | 4.8 | 8.0 | 0.00 | 0.00 | 0.00 | 82 | 1014.0 |
| 20260905184507 | 15 | 225 | 4.8 | 9.7 | 0.00 | 0.00 | 0.00 | 82 | 1014.2 |
| 20260905184003 | 15 | 292 | 3.2 | 8.0 | 0.00 | 0.00 | 0.00 | 83 | 1014.2 |
| 20260905183506 | 15 | 248 | 6.4 | 9.7 | 0.00 | 0.00 | 0.00 | 83 | 1014.3 |
| 20260905183001 | 15 | 270 | 1.6 | 4.8 | 0.00 | 0.00 | 0.00 | 83 | 1014.4 |
| 20260905182502 | 15 | 270 | 4.8 | 6.4 | 0.00 | 0.00 | 0.00 | 83 | 1014.4 |
| 20260905182004 | 15 | 270 | 3.2 | 8.0 | 0.00 | 0.00 | 0.00 | 82 | 1014.4 |
| 20260905181506 | 15 | 270 | 3.2 | 6.4 | 0.00 | 0.00 | 0.00 | 82 | 1014.4 |
| 20260905181003 | 15 | 248 | 4.8 | 8.0 | 0.00 | 0.00 | 0.00 | 81 | 1014.4 |
| 20260905180507 | 15 | 225 | 1.6 | 4.8 | 0.00 | 0.00 | 0.00 | 80 | 1014.3 |
| 20260905180006 | 15 | 270 | 1.6 | 4.8 | 0.00 | 0.00 | 0.00 | 79 | 1014.2 |
| 20260905175503 | 15 | 270 | 1.6 | 4.8 | 0.00 | 0.00 | 0.00 | 79 | 1014.2 |
| 20260905175005 | 15 | 270 | 3.2 | 9.7 | 0.00 | 0.00 | 0.00 | 78 | 1014.3 |
| 20260905174501 | 15 | 292 | 3.2 | 8.0 | 0.00 | 0.00 | 0.00 | 77 | 1014.1 |
| 20260905174001 | 15 | 292 | 3.2 | 8.0 | 0.00 | 0.00 | 0.00 | 77 | 1014.1 |
| 20260905173506 | 15 | 315 | 4.8 | 8.0 | 0.00 | 0.00 | 0.00 | 77 | 1013.9 |
| 20260905173004 | 15 | 315 | 4.8 | 9.7 | 0.00 | 0.00 | 0.00 | 76 | 1013.9 |
| 20260905172501 | 15 | 292 | 3.2 | 8.0 | 0.00 | 0.00 | 0.00 | 76 | 1013.9 |
| 20260905172001 | 15 | 248 | 3.2 | 8.0 | 0.00 | 0.00 | 0.00 | 76 | 1013.8 |
| 20260905171506 | 16 | 315 | 4.8 | 8.0 | 0.00 | 0.00 | 0.00 | 75 | 1013.9 |
| 20260905171005 | 16 | 292 | 11.3 | 16.1 | 0.00 | 0.00 | 0.00 | 74 | 1014.0 |
| 20260905170501 | 16 | 248 | 1.6 | 8.0 | 0.00 | 0.00 | 0.00 | 73 | 1014.0 |
| 20260905170003 | 16 | 292 | 6.4 | 14.5 | 0.00 | 0.00 | 0.00 | 73 | 1013.9 |
| 20260905165506 | 16 | 270 | 9.7 | 12.9 | 0.00 | 0.00 | 0.00 | 73 | 1014.0 |
| 20260905165006 | 16 | 292 | 6.4 | 9.7 | 0.00 | 0.00 | 0.00 | 73 | 1014.1 |
| 20260905164504 | 16 | 292 | 4.8 | 8.0 | 0.00 | 0.00 | 0.00 | 73 | 1014.0 |
| 20260905164001 | 16 | 292 | 4.8 | 11.3 | 0.00 | 0.00 | 0.00 | 73 | 1014.0 |
| 20260905163503 | 16 | 292 | 1.6 | 4.8 | 0.00 | 0.00 | 0.00 | 72 | 1013.8 |
| 20260905163006 | 16 | 292 | 3.2 | 6.4 | 0.00 | 0.00 | 0.00 | 72 | 1013.7 |
| 20260905162505 | 16 | 270 | 6.4 | 11.3 | 0.00 | 0.00 | 0.00 | 72 | 1013.7 |
| 20260905162003 | 16 | 292 | 9.7 | 16.1 | 0.00 | 0.00 | 0.00 | 71 | 1013.7 |
| 20260905161503 | 16 | 315 | 8.0 | 19.3 | 0.00 | 0.00 | 0.00 | 71 | 1013.6 |
| 20260905161002 | 16 | 270 | 3.2 | 11.3 | 0.00 | 0.00 | 0.00 | 71 | 1013.6 |
| 20260905160506 | 16 | 22 | 3.2 | 12.9 | 0.00 | 0.00 | 0.00 | 72 | 1013.6 |
| 20260905160004 | 16 | 292 | 8.0 | 11.3 | 0.00 | 0.00 | 0.00 | 73 | 1013.5 |
| 20260905155502 | 16 | 315 | 6.4 | 12.9 | 0.00 | 0.00 | 0.00 | 73 | 1013.5 |
| 20260905155005 | 16 | 315 | 9.7 | 14.5 | 0.00 | 0.00 | 0.00 | 73 | 1013.6 |
| 20260905154502 | 16 | 270 | 9.7 | 16.1 | 0.00 | 0.00 | 0.00 | 72 | 1013.8 |
| 20260905154003 | 16 | 270 | 11.3 | 22.5 | 0.00 | 0.00 | 0.00 | 72 | 1013.8 |
| 20260905153503 | 16 | 292 | 12.9 | 22.5 | 0.00 | 0.00 | 0.00 | 72 | 1013.9 |
| 20260905153003 | 16 | 315 | 11.3 | 20.9 | 0.00 | 0.00 | 0.00 | 72 | 1013.7 |
| 20260905152503 | 16 | 292 | 16.1 | 30.6 | 0.00 | 0.00 | 0.00 | 74 | 1013.6 |
| 20260905152005 | 17 | 292 | 14.5 | 24.1 | 0.00 | 0.00 | 0.00 | 74 | 1013.5 |
| 20260905151502 | 17 | 292 | 14.5 | 29.0 | 0.00 | 0.00 | 0.00 | 73 | 1013.5 |
| 20260905151000 | 17 | 315 | 20.9 | 32.2 | 0.00 | 0.00 | 0.00 | 70 | 1013.4 |
| 20260905150501 | 18 | 292 | 20.9 | 32.2 | 0.00 | 0.00 | 0.00 | 68 | 1013.4 |
| 20260905150000 | 18 | 315 | 20.9 | 37.0 | 0.00 | 0.00 | 0.00 | 65 | 1013.2 |
| 20260905145504 | 18 | 270 | 14.5 | 24.1 | 0.00 | 0.00 | 0.00 | 62 | 1013.0 |
| 20260905145004 | 19 | 315 | 12.9 | 19.3 | 0.00 | 0.00 | 0.00 | 61 | 1012.9 |
| 20260905144502 | 19 | 270 | 16.1 | 37.0 | 0.00 | 0.00 | 0.00 | 61 | 1012.8 |
| 20260905144003 | 19 | 315 | 11.3 | 17.7 | 0.00 | 0.00 | 0.00 | 61 | 1012.9 |
| 20260905143505 | 19 | 292 | 12.9 | 27.4 | 0.00 | 0.00 | 0.00 | 61 | 1012.9 |
| 20260905143004 | 19 | 292 | 14.5 | 25.7 | 0.00 | 0.00 | 0.00 | 61 | 1012.7 |
| 20260905142502 | 20 | 315 | 14.5 | 29.0 | 0.00 | 0.00 | 0.00 | 60 | 1012.8 |
| 20260905142001 | 20 | 315 | 14.5 | 22.5 | 0.00 | 0.00 | 0.00 | 60 | 1012.7 |
| 20260905141501 | 20 | 315 | 14.5 | 22.5 | 0.00 | 0.00 | 0.00 | 60 | 1012.5 |
| 20260905141000 | 20 | 315 | 20.9 | 35.4 | 0.00 | 0.00 | 0.00 | 60 | 1012.6 |
| 20260905140504 | 20 | 315 | 16.1 | 30.6 | 0.00 | 0.00 | 0.00 | 59 | 1012.6 |
| 20260905140001 | 20 | 292 | 14.5 | 29.0 | 0.00 | 0.00 | 0.00 | 59 | 1012.5 |
| 20260905135503 | 20 | 315 | 14.5 | 17.7 | 0.00 | 0.00 | 0.00 | 61 | 1012.5 |
| 20260905135001 | 20 | 270 | 12.9 | 20.9 | 0.00 | 0.00 | 0.00 | 62 | 1012.5 |
| 20260905134802 | 20 | 225 | 12.9 | 22.5 | 0.00 | 0.00 | 0.00 | 62 | 1012.6 |